Time;durP1;ratioP1;P1;durP2;ratioP2;P2;SDS_P1;SDS_P2;PMS_P1;PMS_P2;Temp;Humidity;BMP_temperature;BMP_pressure;BME280_temperature;BME280_humidity;BME280_pressure;Samples;Min_cycle;Max_cycle;Signal;HPM_P1;HPM_P2
2021/11/01 00:00:24;;;;;;;27.50;15.07;;;;;;;;;;4917934;29;20065;-37
2021/11/01 00:02:50;;;;;;;43.10;18.48;;;;;;;;;;4932732;29;20032;-37
2021/11/01 00:05:15;;;;;;;37.00;16.50;;;;;;;;;;4917963;29;20099;-37
2021/11/01 00:07:41;;;;;;;33.78;16.92;;;;;;;;;;4917677;29;20484;-37
2021/11/01 00:10:07;;;;;;;42.58;19.20;;;;;;;;;;4917956;29;20032;-42
2021/11/01 00:12:33;;;;;;;41.67;18.52;;;;;;;;;;4917615;29;20506;-37
2021/11/01 00:14:59;;;;;;;42.58;18.38;;;;;;;;;;4917775;29;20027;-36
2021/11/01 00:17:25;;;;;;;37.17;17.42;;;;;;;;;;4917790;29;20427;-37
2021/11/01 00:19:51;;;;;;;42.42;16.98;;;;;;;;;;4917868;29;20511;-37
2021/11/01 00:22:16;;;;;;;39.05;18.88;;;;;;;;;;4917800;29;20036;-37
2021/11/01 00:24:42;;;;;;;37.97;16.80;;;;;;;;;;4917407;29;20504;-37
2021/11/01 00:27:08;;;;;;;41.15;15.70;;;;;;;;;;4916182;29;20078;-37
2021/11/01 00:29:34;;;;;;;35.17;17.13;;;;;;;;;;4917369;29;20020;-37
2021/11/01 00:32:00;;;;;;;40.17;18.95;;;;;;;;;;4917631;29;20040;-43
2021/11/01 00:34:25;;;;;;;37.65;17.00;;;;;;;;;;4917220;29;20027;-37
2021/11/01 00:36:53;;;;;;;47.40;18.55;;;;;;;;;;4917509;29;20036;-37
2021/11/01 00:39:19;;;;;;;50.28;18.42;;;;;;;;;;4917218;29;20174;-38
2021/11/01 00:41:44;;;;;;;43.85;19.48;;;;;;;;;;4917133;29;20096;-37
2021/11/01 00:44:10;;;;;;;42.60;19.08;;;;;;;;;;4931861;29;20028;-37
2021/11/01 00:46:36;;;;;;;38.95;16.17;;;;;;;;;;4916884;29;20051;-37
2021/11/01 00:49:03;;;;;;;41.47;17.23;;;;;;;;;;4917100;29;20032;-37
2021/11/01 00:51:28;;;;;;;46.95;19.77;;;;;;;;;;4915699;29;20400;-37
2021/11/01 00:53:54;;;;;;;41.00;17.77;;;;;;;;;;4916919;29;20031;-37
2021/11/01 00:56:19;;;;;;;30.92;14.75;;;;;;;;;;4916951;29;20039;-37
2021/11/01 00:58:45;;;;;;;47.00;19.13;;;;;;;;;;4916783;29;20024;-37
2021/11/01 01:01:13;;;;;;;41.55;18.08;;;;;;;;;;4916838;29;20039;-37
2021/11/01 01:03:40;;;;;;;41.50;18.98;;;;;;;;;;4916836;29;20032;-37
2021/11/01 01:06:05;;;;;;;36.13;19.27;;;;;;;;;;4916661;29;20054;-37
2021/11/01 01:08:31;;;;;;;42.78;19.90;;;;;;;;;;4916647;29;20044;-37
2021/11/01 01:10:56;;;;;;;39.08;18.48;;;;;;;;;;4916935;29;20032;-38
2021/11/01 01:13:23;;;;;;;37.97;17.27;;;;;;;;;;4916804;29;20120;-37
2021/11/01 01:15:58;;;;;;;34.63;17.90;;;;;;;;;;4916564;29;20021;-37
2021/11/01 01:18:28;;;;;;;38.00;17.85;;;;;;;;;;4915458;29;20491;-37
2021/11/01 01:20:56;;;;;;;32.47;16.58;;;;;;;;;;4916454;29;20027;-38
2021/11/01 01:23:24;;;;;;;25.75;13.82;;;;;;;;;;4916705;29;20040;-37
2021/11/01 01:25:54;;;;;;;28.70;16.33;;;;;;;;;;4916379;29;20024;-37
2021/11/01 01:28:21;;;;;;;33.15;16.33;;;;;;;;;;4899588;29;20155;-37
2021/11/01 01:30:46;;;;;;;28.35;15.68;;;;;;;;;;4916263;29;20036;-37
2021/11/01 01:33:12;;;;;;;36.50;16.60;;;;;;;;;;4916246;29;20113;-37
2021/11/01 01:35:40;;;;;;;26.38;13.70;;;;;;;;;;4916459;29;20031;-37
2021/11/01 01:38:06;;;;;;;36.47;17.80;;;;;;;;;;4916159;29;20100;-37
2021/11/01 01:40:32;;;;;;;31.77;15.85;;;;;;;;;;4916047;29;20399;-37
2021/11/01 01:42:57;;;;;;;32.30;16.88;;;;;;;;;;4916044;29;20036;-37
2021/11/01 01:45:23;;;;;;;40.20;17.23;;;;;;;;;;4916368;29;20028;-37
2021/11/01 01:47:48;;;;;;;35.28;16.67;;;;;;;;;;4916151;29;20048;-37
2021/11/01 01:50:15;;;;;;;33.65;16.35;;;;;;;;;;4916004;29;20024;-37
2021/11/01 01:52:41;;;;;;;32.88;16.15;;;;;;;;;;4915888;29;20038;-38
2021/11/01 01:55:08;;;;;;;36.78;18.73;;;;;;;;;;4915963;29;20048;-37
2021/11/01 01:57:34;;;;;;;35.85;17.08;;;;;;;;;;4914519;29;20040;-37
2021/11/01 02:00:00;;;;;;;32.80;16.65;;;;;;;;;;4930730;29;20031;-37
2021/11/01 02:02:25;;;;;;;35.45;17.25;;;;;;;;;;4916124;29;20036;-38
2021/11/01 02:04:51;;;;;;;32.45;15.68;;;;;;;;;;4915625;29;20467;-37
2021/11/01 02:07:17;;;;;;;33.80;16.55;;;;;;;;;;4915493;29;20056;-37
2021/11/01 02:10:07;;;;;;;32.33;16.08;;;;;;;;;;4915613;29;20479;-37
2021/11/01 02:12:33;;;;;;;35.28;16.60;;;;;;;;;;4915578;29;20030;-37
2021/11/01 02:15:02;;;;;;;28.65;15.23;;;;;;;;;;4915858;29;20631;-37
2021/11/01 02:17:29;;;;;;;34.38;17.13;;;;;;;;;;4915415;29;20043;-37
2021/11/01 02:20:03;;;;;;;28.27;14.10;;;;;;;;;;4915777;29;20136;-37
2021/11/01 02:22:40;;;;;;;34.45;16.77;;;;;;;;;;4915400;29;20524;-37
2021/11/01 02:25:21;;;;;;;37.85;16.27;;;;;;;;;;4914222;29;20040;-37
2021/11/01 02:27:47;;;;;;;31.38;14.50;;;;;;;;;;4915309;29;20123;-38
2021/11/01 02:30:14;;;;;;;29.23;14.85;;;;;;;;;;4915372;29;20145;-37
2021/11/01 02:32:41;;;;;;;29.05;15.98;;;;;;;;;;4915152;29;20111;-37
2021/11/01 02:35:07;;;;;;;28.73;14.45;;;;;;;;;;4915597;29;20024;-37
2021/11/01 02:37:38;;;;;;;33.97;16.23;;;;;;;;;;4915390;29;20032;-37
2021/11/01 02:40:04;;;;;;;27.15;14.05;;;;;;;;;;4915144;29;20064;-37
2021/11/01 02:42:30;;;;;;;27.45;13.27;;;;;;;;;;4915082;29;20047;-37
2021/11/01 02:44:55;;;;;;;35.22;16.40;;;;;;;;;;4915146;29;20031;-37
2021/11/01 02:47:21;;;;;;;29.92;15.48;;;;;;;;;;4915055;29;20036;-37
2021/11/01 02:49:47;;;;;;;30.27;16.17;;;;;;;;;;4914280;29;20033;-37
2021/11/01 02:52:12;;;;;;;28.60;14.18;;;;;;;;;;4915340;29;20039;-37
2021/11/01 02:54:38;;;;;;;31.15;14.70;;;;;;;;;;4914818;29;20084;-37
2021/11/01 02:57:04;;;;;;;31.10;13.40;;;;;;;;;;4915035;29;20161;-37
2021/11/01 02:59:29;;;;;;;32.47;15.63;;;;;;;;;;4915049;29;20067;-38
2021/11/01 03:01:58;;;;;;;25.67;14.23;;;;;;;;;;4914885;29;20023;-37
2021/11/01 03:04:24;;;;;;;27.40;15.73;;;;;;;;;;4914917;29;20032;-37
2021/11/01 03:06:50;;;;;;;29.05;15.30;;;;;;;;;;4914643;29;20044;-37
2021/11/01 03:09:16;;;;;;;30.10;14.55;;;;;;;;;;4914934;29;20036;-37
2021/11/01 03:11:41;;;;;;;30.83;14.57;;;;;;;;;;4915164;29;20031;-37
2021/11/01 03:14:07;;;;;;;27.67;12.57;;;;;;;;;;4915063;29;20032;-37
2021/11/01 03:16:34;;;;;;;30.92;16.13;;;;;;;;;;4914829;29;20085;-37
2021/11/01 03:19:03;;;;;;;26.23;13.27;;;;;;;;;;4914850;29;20036;-37
2021/11/01 03:21:30;;;;;;;32.17;15.18;;;;;;;;;;4914662;29;20439;-37
2021/11/01 03:23:56;;;;;;;32.65;15.10;;;;;;;;;;4929352;29;20024;-37
2021/11/01 03:26:23;;;;;;;29.38;15.25;;;;;;;;;;4914952;29;20071;-37
2021/11/01 03:28:51;;;;;;;28.88;14.93;;;;;;;;;;4914694;29;20108;-37
2021/11/01 03:31:17;;;;;;;29.73;14.35;;;;;;;;;;4914786;29;20098;-37
2021/11/01 03:33:43;;;;;;;30.17;15.05;;;;;;;;;;4929121;29;20383;-37
2021/11/01 03:36:09;;;;;;;40.35;15.82;;;;;;;;;;4914702;29;20024;-37
2021/11/01 03:38:36;;;;;;;26.08;13.20;;;;;;;;;;4914902;29;20080;-37
2021/11/01 03:41:07;;;;;;;28.63;14.70;;;;;;;;;;4914749;29;20024;-37
2021/11/01 03:43:42;;;;;;;28.58;14.73;;;;;;;;;;4914409;29;20520;-37
2021/11/01 03:46:08;;;;;;;24.27;13.55;;;;;;;;;;4914696;29;20060;-37
2021/11/01 03:48:36;;;;;;;24.75;14.27;;;;;;;;;;4914571;29;20048;-38
2021/11/01 03:53:54;;;;;;;31.45;13.20;;;;;;;;;;4904522;29;20591;-37
2021/11/01 03:56:22;;;;;;;26.95;14.30;;;;;;;;;;4913296;29;20047;-37
2021/11/01 03:58:47;;;;;;;29.98;13.63;;;;;;;;;;4913157;29;20527;-37
2021/11/01 04:01:13;;;;;;;29.98;14.27;;;;;;;;;;4915585;29;20035;-37
2021/11/01 04:03:41;;;;;;;33.50;14.38;;;;;;;;;;4917848;29;20491;-37
2021/11/01 04:06:06;;;;;;;31.45;14.07;;;;;;;;;;4917746;29;20049;-37
2021/11/01 04:08:32;;;;;;;25.63;14.73;;;;;;;;;;4916601;29;20051;-37
2021/11/01 04:10:58;;;;;;;27.27;13.80;;;;;;;;;;4917789;29;20035;-37
2021/11/01 04:13:24;;;;;;;31.33;13.15;;;;;;;;;;4917970;29;20032;-37
2021/11/01 04:15:56;;;;;;;28.10;13.93;;;;;;;;;;4917957;29;20391;-37
2021/11/01 04:18:30;;;;;;;32.97;15.80;;;;;;;;;;4917740;29;20036;-37
2021/11/01 04:20:56;;;;;;;32.53;14.30;;;;;;;;;;4917653;29;20053;-37
2021/11/01 04:23:26;;;;;;;28.00;14.73;;;;;;;;;;4917576;29;20016;-37
2021/11/01 04:25:52;;;;;;;28.83;14.25;;;;;;;;;;4917457;29;20032;-37
2021/11/01 04:28:17;;;;;;;29.50;14.73;;;;;;;;;;4917367;29;20087;-37
2021/11/01 04:30:47;;;;;;;28.80;13.15;;;;;;;;;;4917425;29;20040;-37
2021/11/01 04:33:15;;;;;;;33.42;15.77;;;;;;;;;;4917250;29;20040;-37
2021/11/01 04:35:41;;;;;;;32.67;14.98;;;;;;;;;;4917541;29;20035;-37
2021/11/01 04:53:53;;;;;;;33.60;15.65;;;;;;;;;;4916884;29;20480;-37
2021/11/01 04:56:21;;;;;;;36.58;15.38;;;;;;;;;;4917105;29;20523;-37
2021/11/01 04:58:50;;;;;;;32.75;14.23;;;;;;;;;;4916934;29;20060;-37
2021/11/01 05:01:20;;;;;;;33.92;15.02;;;;;;;;;;4916847;29;20024;-38
2021/11/01 05:03:49;;;;;;;23.02;12.93;;;;;;;;;;4916757;29;20140;-37
2021/11/01 05:06:21;;;;;;;26.10;12.43;;;;;;;;;;4916612;29;20040;-37
2021/11/01 05:08:50;;;;;;;36.42;15.50;;;;;;;;;;4916765;29;20040;-37
2021/11/01 05:13:55;;;;;;;26.88;13.05;;;;;;;;;;4916007;29;20054;-37
2021/11/01 05:16:32;;;;;;;28.80;15.80;;;;;;;;;;4916653;29;20024;-37
2021/11/01 05:19:06;;;;;;;25.50;14.40;;;;;;;;;;4916734;29;20139;-37
2021/11/01 05:24:08;;;;;;;31.30;12.52;;;;;;;;;;4916481;29;20016;-37
2021/11/01 05:26:51;;;;;;;27.65;14.32;;;;;;;;;;4916358;29;20032;-37
2021/11/01 05:29:16;;;;;;;22.48;12.23;;;;;;;;;;4916652;29;20031;-37
2021/11/01 05:31:48;;;;;;;25.48;12.48;;;;;;;;;;4916265;29;20032;-37
2021/11/01 05:34:17;;;;;;;37.13;14.85;;;;;;;;;;4915066;29;20472;-37
2021/11/01 05:36:43;;;;;;;34.03;17.15;;;;;;;;;;4916247;29;20032;-37
2021/11/01 05:39:09;;;;;;;27.30;13.90;;;;;;;;;;4916575;29;20097;-36
2021/11/01 05:41:34;;;;;;;34.58;15.52;;;;;;;;;;4916123;29;20017;-37
2021/11/01 05:44:00;;;;;;;49.03;20.98;;;;;;;;;;4916068;29;20032;-37
2021/11/01 05:46:33;;;;;;;43.53;19.60;;;;;;;;;;4916307;29;20043;-37
2021/11/01 05:48:59;;;;;;;46.00;20.67;;;;;;;;;;4916056;29;20415;-37
2021/11/01 05:51:25;;;;;;;40.60;17.52;;;;;;;;;;4916289;29;20021;-37
2021/11/01 05:53:55;;;;;;;37.72;17.50;;;;;;;;;;4915800;29;20072;-37
2021/11/01 05:57:11;;;;;;;43.08;19.60;;;;;;;;;;4915931;29;20179;-39
2021/11/01 06:02:16;;;;;;;37.90;16.45;;;;;;;;;;4915814;29;20067;-37
2021/11/01 06:10:06;;;;;;;30.42;15.60;;;;;;;;;;4915588;29;20115;-37
2021/11/01 06:15:16;;;;;;;36.63;16.90;;;;;;;;;;4915634;29;20033;-37
2021/11/01 06:17:42;;;;;;;31.73;14.55;;;;;;;;;;4915801;29;20379;-37
2021/11/01 06:20:09;;;;;;;31.05;15.43;;;;;;;;;;4915484;29;20026;-37
2021/11/01 06:22:34;;;;;;;33.05;15.02;;;;;;;;;;4915348;29;20107;-37
2021/11/01 06:25:05;;;;;;;32.65;14.68;;;;;;;;;;4915481;29;20168;-37
2021/11/01 06:27:31;;;;;;;32.25;14.52;;;;;;;;;;4915250;29;20511;-37
2021/11/01 06:30:00;;;;;;;34.83;15.57;;;;;;;;;;4915722;29;20032;-43
2021/11/01 06:51:11;;;;;;;24.58;13.18;;;;;;;;;;4915106;29;20029;-37
2021/11/01 07:15:29;;;;;;;27.60;15.18;;;;;;;;;;4914964;29;20115;-37
2021/11/01 07:18:15;;;;;;;27.58;13.18;;;;;;;;;;4915016;29;20040;-37
2021/11/01 07:21:15;;;;;;;25.35;13.00;;;;;;;;;;4914875;29;20040;-37
2021/11/01 08:28:48;;;;;;;23.33;12.80;;;;;;;;;;4917521;29;20051;-37
2021/11/01 08:44:52;;;;;;;19.05;11.38;;;;;;;;;;4917314;29;20024;-37
2021/11/01 08:50:28;;;;;;;22.55;11.77;;;;;;;;;;4916837;29;20028;-37
2021/11/01 09:04:01;;;;;;;20.25;11.18;;;;;;;;;;4916789;29;20036;-36
2021/11/01 09:27:34;;;;;;;15.70;9.68;;;;;;;;;;4895308;29;20068;-37
2021/11/01 09:43:26;;;;;;;18.10;9.77;;;;;;;;;;4916277;29;20103;-37
2021/11/01 09:45:56;;;;;;;18.45;10.38;;;;;;;;;;4916054;29;20028;-37
2021/11/01 09:48:22;;;;;;;20.58;10.38;;;;;;;;;;4916022;29;20044;-37
2021/11/01 09:50:49;;;;;;;20.27;10.65;;;;;;;;;;4916171;29;20036;-37
2021/11/01 09:53:24;;;;;;;18.25;11.18;;;;;;;;;;4915968;29;20039;-37
2021/11/01 10:01:14;;;;;;;19.90;11.30;;;;;;;;;;4915923;29;20547;-36
2021/11/01 10:03:44;;;;;;;23.27;12.07;;;;;;;;;;4915782;29;20084;-36
2021/11/01 10:06:32;;;;;;;24.70;10.85;;;;;;;;;;4915463;29;20511;-37
2021/11/01 10:09:00;;;;;;;25.17;12.48;;;;;;;;;;4915419;29;20059;-37
2021/11/01 10:11:30;;;;;;;19.63;10.70;;;;;;;;;;4915753;29;20031;-37
2021/11/01 10:14:01;;;;;;;22.58;11.18;;;;;;;;;;4915516;29;20032;-37
2021/11/01 10:19:46;;;;;;;20.13;10.73;;;;;;;;;;4915576;29;20033;-37
2021/11/01 10:22:21;;;;;;;23.02;11.18;;;;;;;;;;4895247;29;20607;-37
2021/11/01 10:24:50;;;;;;;25.42;12.32;;;;;;;;;;4915470;29;20468;-37
2021/11/01 10:27:27;;;;;;;23.90;11.45;;;;;;;;;;4915381;29;20054;-37
2021/11/01 10:29:57;;;;;;;22.55;11.75;;;;;;;;;;4914192;29;20038;-37
2021/11/01 10:32:31;;;;;;;24.75;11.90;;;;;;;;;;4915370;29;20492;-37
2021/11/01 10:35:23;;;;;;;21.02;11.55;;;;;;;;;;4915218;29;20040;-36
2021/11/01 10:38:15;;;;;;;20.88;11.18;;;;;;;;;;4911377;29;20101;-37
2021/11/01 10:40:49;;;;;;;22.35;10.43;;;;;;;;;;4915131;29;20040;-36
2021/11/01 11:13:19;;;;;;;17.25;9.75;;;;;;;;;;4918822;29;20116;-37
2021/11/01 11:15:49;;;;;;;19.23;10.05;;;;;;;;;;4917582;29;20566;-36
2021/11/01 11:21:04;;;;;;;20.15;10.35;;;;;;;;;;4918937;29;20031;-36
2021/11/01 11:28:53;;;;;;;20.60;10.57;;;;;;;;;;4918592;29;20036;-38
2021/11/01 11:31:56;;;;;;;21.92;11.13;;;;;;;;;;4918919;29;20040;-36
2021/11/01 11:42:47;;;;;;;21.67;10.73;;;;;;;;;;4918617;29;20055;-41
2021/11/01 11:50:41;;;;;;;15.75;9.05;;;;;;;;;;4918185;29;20032;-37
2021/11/01 11:53:09;;;;;;;19.88;8.50;;;;;;;;;;4918180;29;20029;-38
2021/11/01 11:55:34;;;;;;;16.38;9.32;;;;;;;;;;4918158;29;20031;-36
2021/11/01 11:58:02;;;;;;;21.70;10.43;;;;;;;;;;4918046;29;20019;-37
2021/11/01 12:00:29;;;;;;;16.88;7.80;;;;;;;;;;4918137;29;20032;-36
2021/11/01 12:02:56;;;;;;;21.02;9.50;;;;;;;;;;4917851;29;20464;-36
2021/11/01 12:05:36;;;;;;;19.95;9.00;;;;;;;;;;4917850;29;20043;-36
2021/11/01 12:08:18;;;;;;;16.42;8.90;;;;;;;;;;4918267;29;20436;-37
2021/11/01 12:18:53;;;;;;;16.50;7.97;;;;;;;;;;4917631;29;20036;-36
2021/11/01 12:21:20;;;;;;;23.38;8.07;;;;;;;;;;4917693;29;20450;-36
2021/11/01 12:23:45;;;;;;;19.52;8.90;;;;;;;;;;4917559;29;20051;-37
2021/11/01 12:26:14;;;;;;;18.50;8.57;;;;;;;;;;4917626;29;20032;-37
2021/11/01 12:28:49;;;;;;;21.27;9.25;;;;;;;;;;4917779;29;20028;-37
2021/11/01 12:31:16;;;;;;;17.63;8.82;;;;;;;;;;4917741;29;20047;-36
2021/11/01 12:33:50;;;;;;;19.30;9.30;;;;;;;;;;4917317;29;20498;-36
2021/11/01 12:36:19;;;;;;;15.68;7.63;;;;;;;;;;4917432;29;20036;-37
2021/11/01 12:38:53;;;;;;;15.93;8.15;;;;;;;;;;4916069;29;20020;-36
2021/11/01 12:41:28;;;;;;;13.23;7.53;;;;;;;;;;4917369;29;20040;-36
2021/11/01 12:49:07;;;;;;;11.10;6.82;;;;;;;;;;4917076;29;20044;-36
2021/11/01 12:57:19;;;;;;;11.05;6.15;;;;;;;;;;4917115;29;20044;-37
2021/11/01 12:59:47;;;;;;;9.65;6.32;;;;;;;;;;4916937;29;20055;-37
2021/11/01 13:02:32;;;;;;;7.63;5.43;;;;;;;;;;4916937;29;20020;-37
2021/11/01 13:05:00;;;;;;;12.55;5.80;;;;;;;;;;4916782;29;20078;-37
2021/11/01 13:10:47;;;;;;;11.68;5.55;;;;;;;;;;4916351;29;20115;-37
2021/11/01 13:19:19;;;;;;;10.38;6.32;;;;;;;;;;4916666;29;20487;-37
2021/11/01 13:21:56;;;;;;;10.80;6.38;;;;;;;;;;4916660;29;20035;-37
2021/11/01 13:24:33;;;;;;;10.35;6.63;;;;;;;;;;4916649;29;20403;-36
2021/11/01 13:27:24;;;;;;;17.85;6.70;;;;;;;;;;4916677;29;20190;-37
2021/11/01 13:38:06;;;;;;;7.38;4.70;;;;;;;;;;4916285;29;20036;-37
2021/11/01 13:40:37;;;;;;;8.40;5.40;;;;;;;;;;4916228;29;20048;-37
2021/11/01 13:43:03;;;;;;;4.68;3.33;;;;;;;;;;4916171;29;20065;-38
2021/11/01 13:45:29;;;;;;;8.80;5.22;;;;;;;;;;4916356;29;20056;-38
2021/11/01 13:47:59;;;;;;;11.25;4.25;;;;;;;;;;4915978;29;20036;-37
2021/11/01 13:50:43;;;;;;;8.45;4.63;;;;;;;;;;4916114;29;20039;-37
2021/11/01 13:53:14;;;;;;;8.93;4.40;;;;;;;;;;4916124;29;20099;-37
2021/11/01 13:55:46;;;;;;;7.00;3.47;;;;;;;;;;4915859;29;20036;-37
2021/11/01 14:00:51;;;;;;;5.95;4.35;;;;;;;;;;4916009;29;20043;-37
2021/11/01 14:03:35;;;;;;;11.52;5.30;;;;;;;;;;4915840;29;20036;-37
2021/11/01 14:14:53;;;;;;;7.68;4.75;;;;;;;;;;4914432;29;20441;-37
2021/11/01 14:58:10;;;;;;;4.80;2.72;;;;;;;;;;4915168;29;20496;-36
2021/11/01 15:19:33;;;;;;;3.15;2.30;;;;;;;;;;4913614;29;20402;-36
2021/11/01 15:22:34;;;;;;;3.45;2.03;;;;;;;;;;4914765;29;20212;-37
2021/11/01 15:35:27;;;;;;;1.98;1.60;;;;;;;;;;4914782;29;20535;-37
2021/11/01 16:18:44;;;;;;;2.20;1.20;;;;;;;;;;4917818;29;20020;-37
2021/11/01 16:21:10;;;;;;;1.65;1.25;;;;;;;;;;4917729;29;20032;-36
2021/11/01 16:23:36;;;;;;;1.88;1.42;;;;;;;;;;4917699;29;20042;-37
2021/11/01 16:26:24;;;;;;;1.67;1.58;;;;;;;;;;4917558;29;20028;-37
2021/11/01 16:28:55;;;;;;;2.53;1.65;;;;;;;;;;4917587;29;20052;-37
2021/11/01 16:31:28;;;;;;;1.95;1.60;;;;;;;;;;4917516;29;20051;-37
2021/11/01 16:34:02;;;;;;;3.05;1.88;;;;;;;;;;4916359;29;20432;-37
2021/11/01 16:36:45;;;;;;;1.50;1.13;;;;;;;;;;4917469;29;20028;-37
2021/11/01 16:39:11;;;;;;;1.58;1.45;;;;;;;;;;4917542;29;20055;-38
2021/11/01 16:41:37;;;;;;;1.73;1.35;;;;;;;;;;4917340;29;20024;-37
2021/11/01 16:44:15;;;;;;;2.55;1.15;;;;;;;;;;4917343;29;20040;-36
2021/11/01 16:46:41;;;;;;;1.20;1.10;;;;;;;;;;4917205;29;20163;-36
2021/11/01 16:49:07;;;;;;;2.25;1.30;;;;;;;;;;4917443;29;20040;-37
2021/11/01 16:51:34;;;;;;;1.77;1.17;;;;;;;;;;4917254;29;20028;-37
2021/11/01 16:54:00;;;;;;;1.60;1.10;;;;;;;;;;4916992;29;20120;-37
2021/11/01 16:56:48;;;;;;;1.63;1.00;;;;;;;;;;4917467;29;20136;-37
2021/11/01 17:02:06;;;;;;;1.55;1.38;;;;;;;;;;4917183;29;20395;-37
2021/11/01 17:04:34;;;;;;;1.25;1.15;;;;;;;;;;4917290;29;20060;-37
2021/11/01 17:07:14;;;;;;;1.75;1.25;;;;;;;;;;4916674;29;20067;-37
2021/11/01 17:26:09;;;;;;;2.25;1.50;;;;;;;;;;4916606;29;20079;-37
2021/11/01 17:28:47;;;;;;;0.90;0.82;;;;;;;;;;4916511;29;20123;-37
2021/11/01 18:53:23;;;;;;;6.70;4.50;;;;;;;;;;4915143;29;20586;-37
2021/11/01 18:55:50;;;;;;;5.03;3.92;;;;;;;;;;4915299;29;20040;-37
2021/11/01 18:58:17;;;;;;;4.60;3.58;;;;;;;;;;4913962;29;20122;-37
2021/11/01 19:00:43;;;;;;;3.75;3.15;;;;;;;;;;4915343;29;20020;-37
2021/11/01 19:03:12;;;;;;;3.75;2.83;;;;;;;;;;4915189;29;20111;-37
2021/11/01 20:03:37;;;;;;;4.93;3.10;;;;;;;;;;4918015;29;20039;-37
2021/11/01 20:06:12;;;;;;;4.65;3.15;;;;;;;;;;4917807;29;20084;-37
2021/11/01 20:14:27;;;;;;;5.57;3.17;;;;;;;;;;4917807;29;20075;-36
2021/11/01 21:25:36;;;;;;;4.47;2.42;;;;;;;;;;4902147;29;20460;-36
2021/11/01 21:28:02;;;;;;;4.82;2.70;;;;;;;;;;4915208;29;20032;-37
2021/11/01 21:30:28;;;;;;;2.90;1.60;;;;;;;;;;4916520;29;20043;-37
2021/11/01 21:32:54;;;;;;;2.30;1.73;;;;;;;;;;4916713;29;20016;-37
2021/11/01 21:35:26;;;;;;;2.80;1.75;;;;;;;;;;4916443;29;20055;-37
2021/11/01 21:37:52;;;;;;;2.65;2.05;;;;;;;;;;4916217;29;20067;-37
2021/11/01 21:40:18;;;;;;;2.97;2.00;;;;;;;;;;4916409;29;20063;-37
2021/11/01 21:42:45;;;;;;;3.78;2.13;;;;;;;;;;4916622;29;20080;-36
2021/11/01 21:45:10;;;;;;;6.13;2.58;;;;;;;;;;4916128;29;20056;-40
2021/11/01 21:47:39;;;;;;;4.65;2.20;;;;;;;;;;4916261;29;20032;-37
2021/11/01 21:50:06;;;;;;;2.38;2.13;;;;;;;;;;4916082;29;20039;-37
2021/11/01 21:52:33;;;;;;;6.00;1.75;;;;;;;;;;4916311;29;20119;-38
2021/11/01 21:54:58;;;;;;;3.92;1.98;;;;;;;;;;4915599;29;20027;-37
2021/11/01 21:57:41;;;;;;;2.95;1.75;;;;;;;;;;4916293;29;20032;-37
2021/11/01 22:34:50;;;;;;;1.02;0.88;;;;;;;;;;4915368;29;20032;-37
2021/11/01 22:45:22;;;;;;;0.95;0.90;;;;;;;;;;4915552;29;20028;-37
2021/11/01 22:55:57;;;;;;;1.10;1.00;;;;;;;;;;4915373;29;20036;-37
2021/11/01 22:58:28;;;;;;;1.23;0.70;;;;;;;;;;4915160;29;20063;-37
2021/11/01 23:00:58;;;;;;;0.40;0.40;;;;;;;;;;4915089;29;20062;-37
2021/11/01 23:03:39;;;;;;;1.48;0.82;;;;;;;;;;4914963;29;20031;-37
2021/11/01 23:33:21;;;;;;;0.80;0.80;;;;;;;;;;4914927;29;20125;-37
2021/11/01 23:35:48;;;;;;;0.43;0.43;;;;;;;;;;4914798;29;20023;-37
2021/11/01 23:38:14;;;;;;;0.45;0.40;;;;;;;;;;4914984;29;20036;-37
2021/11/01 23:40:41;;;;;;;0.80;0.50;;;;;;;;;;4914974;29;20024;-37
2021/11/01 23:43:12;;;;;;;1.08;0.50;;;;;;;;;;4914649;29;20055;-37
2021/11/01 23:45:38;;;;;;;1.17;0.70;;;;;;;;;;4914909;29;20032;-36
2021/11/01 23:48:06;;;;;;;0.73;0.70;;;;;;;;;;4914786;29;20079;-37
2021/11/01 23:50:34;;;;;;;1.80;0.70;;;;;;;;;;4914974;29;20055;-37
2021/11/01 23:55:56;;;;;;;1.42;1.10;;;;;;;;;;4912387;29;20043;-37
2021/11/01 23:58:22;;;;;;;1.35;0.93;;;;;;;;;;4914984;29;20036;-37
